Time;durP1;ratioP1;P1;durP2;ratioP2;P2;SDS_P1;SDS_P2;PMS_P1;PMS_P2;Temp;Humidity;BMP_temperature;BMP_pressure;BME280_temperature;BME280_humidity;BME280_pressure;Samples;Min_cycle;Max_cycle;Signal;HPM_P1;HPM_P2
2024/01/04 00:00:48;;;;;;;0.80;0.68;;;;;;;5.96;73.18;91540.41;2071865;69;20156;-86
2024/01/04 00:03:14;;;;;;;1.73;0.70;;;;;;;5.95;73.05;91534.06;2071303;69;20175;-85
2024/01/04 00:05:40;;;;;;;0.80;0.70;;;;;;;5.93;73.33;91550.72;2071390;69;20148;-82
2024/01/04 00:08:05;;;;;;;0.90;0.60;;;;;;;6.13;72.58;91562.34;2068304;69;20148;-82
2024/01/04 00:10:32;;;;;;;0.95;0.80;;;;;;;5.97;72.73;91548.16;2071467;69;20144;-82
2024/01/04 00:13:00;;;;;;;1.20;0.50;;;;;;;6.31;70.84;91543.09;2068164;69;20140;-84
2024/01/04 00:15:26;;;;;;;1.15;0.80;;;;;;;6.15;71.09;91545.72;2068154;69;20501;-83
2024/01/04 00:17:52;;;;;;;0.80;0.60;;;;;;;5.82;72.47;91560.53;2070947;69;20140;-81
2024/01/04 00:20:18;;;;;;;4.68;0.82;;;;;;;5.83;73.27;91548.03;2067706;69;20230;-83
2024/01/04 00:22:44;;;;;;;1.00;0.90;;;;;;;5.96;73.65;91557.88;2071526;69;20144;-81
2024/01/04 00:25:09;;;;;;;1.42;0.70;;;;;;;5.84;74.21;91554.34;2071618;69;20151;-80
2024/01/04 00:27:35;;;;;;;1.00;0.70;;;;;;;6.06;73.22;91557.75;2067990;69;20243;-81
2024/01/04 00:30:01;;;;;;;0.90;0.75;;;;;;;6.29;71.99;91573.75;2065403;69;20600;-83
2024/01/04 00:32:27;;;;;;;1.52;0.80;;;;;;;6.41;70.70;91573.72;2071144;69;20243;-86
2024/01/04 00:34:54;;;;;;;2.22;0.70;;;;;;;6.16;72.62;91577.16;2069136;69;20218;-82
2024/01/04 00:37:19;;;;;;;0.68;0.60;;;;;;;6.18;71.75;91597.56;2067752;69;20235;-83
2024/01/04 00:39:45;;;;;;;0.98;0.70;;;;;;;6.44;71.03;91603.97;2068339;69;20140;-85
2024/01/04 00:42:11;;;;;;;2.30;0.70;;;;;;;6.47;70.97;91579.66;2068231;69;20654;-84
2024/01/04 00:44:37;;;;;;;1.88;0.80;;;;;;;6.23;71.39;91565.75;2071558;69;20228;-86
2024/01/04 00:47:03;;;;;;;2.47;0.93;;;;;;;5.85;72.98;91556.50;2071027;69;20205;-86
2024/01/04 00:49:31;;;;;;;1.75;0.80;;;;;;;6.18;72.14;91568.88;2070860;69;20559;-85
2024/01/04 00:51:56;;;;;;;2.83;0.93;;;;;;;6.18;71.89;91571.69;2069718;69;20175;-83
2024/01/04 00:54:22;;;;;;;2.28;0.95;;;;;;;6.31;71.43;91563.41;2072123;69;20596;-84
2024/01/04 00:56:48;;;;;;;2.55;1.10;;;;;;;6.42;70.82;91573.13;2072205;69;20177;-83
2024/01/04 00:59:13;;;;;;;3.95;0.98;;;;;;;6.45;71.05;91574.66;2068591;69;20142;-81
2024/01/04 01:01:39;;;;;;;1.45;0.80;;;;;;;6.47;70.72;91577.59;2068691;69;20140;-83
2024/01/04 01:04:05;;;;;;;0.73;0.70;;;;;;;6.36;71.87;91587.44;2068460;69;20144;-84
2024/01/04 01:06:32;;;;;;;2.45;1.13;;;;;;;6.51;70.69;91608.59;2070456;69;20243;-87
2024/01/04 01:08:58;;;;;;;1.23;0.80;;;;;;;6.59;70.19;91605.50;2071749;69;20148;-87
2024/01/04 01:11:23;;;;;;;1.27;0.70;;;;;;;6.21;71.79;91585.19;2065887;69;20556;-86
2024/01/04 01:13:49;;;;;;;1.23;0.73;;;;;;;6.00;73.05;91583.28;2072084;69;20227;-88
2024/01/04 01:16:15;;;;;;;0.82;0.75;;;;;;;6.13;72.26;91584.69;2067350;69;20151;-88
2024/01/04 01:18:41;;;;;;;1.70;0.90;;;;;;;6.09;72.24;91574.03;2069837;69;20223;-87
2024/01/04 01:21:07;;;;;;;3.47;1.27;;;;;;;5.77;73.78;91580.44;2071662;69;20352;-87
2024/01/04 01:23:32;;;;;;;3.42;1.17;;;;;;;6.04;73.42;91593.94;2068348;69;20684;-87
2024/01/04 01:25:59;;;;;;;2.83;1.15;;;;;;;6.07;73.21;91589.94;2071682;69;20155;-88
2024/01/04 01:28:24;;;;;;;3.05;1.10;;;;;;;6.27;72.26;91587.59;2067793;69;20503;-86
2024/01/04 01:30:50;;;;;;;2.92;1.10;;;;;;;6.30;71.74;91595.50;2069061;69;20132;-83
2024/01/04 01:33:16;;;;;;;1.00;0.80;;;;;;;6.04;73.14;91582.75;2068371;69;20175;-87
2024/01/04 01:35:42;;;;;;;2.25;0.80;;;;;;;6.18;72.64;91575.22;2071049;69;20144;-86
2024/01/04 01:38:08;;;;;;;1.55;0.90;;;;;;;6.23;72.42;91582.50;2068602;69;20489;-84
2024/01/04 01:40:33;;;;;;;2.95;1.00;;;;;;;6.06;74.07;91578.03;2067761;69;20137;-83
2024/01/04 01:42:59;;;;;;;2.05;0.93;;;;;;;6.24;72.95;91602.81;2071768;69;20232;-84
2024/01/04 01:45:25;;;;;;;2.25;0.68;;;;;;;6.28;71.85;91600.25;2068553;69;20140;-82
2024/01/04 01:47:50;;;;;;;1.58;0.88;;;;;;;6.15;72.98;91592.47;2070315;69;20152;-83
2024/01/04 01:50:21;;;;;;;1.65;0.75;;;;;;;6.26;71.91;91600.13;2071525;69;20148;-86
2024/01/04 01:52:51;;;;;;;1.13;0.90;;;;;;;6.27;71.78;91604.34;2070057;69;20218;-86
2024/01/04 01:55:19;;;;;;;0.77;0.60;;;;;;;6.01;72.54;91578.41;2068377;69;20520;-81
2024/01/04 01:57:45;;;;;;;1.00;0.70;;;;;;;5.48;74.46;91552.88;2069097;69;20152;-84
2024/01/04 02:00:13;;;;;;;0.98;0.70;;;;;;;5.79;74.25;91547.06;2070464;69;20175;-83
2024/01/04 02:02:43;;;;;;;1.30;0.80;;;;;;;5.77;73.88;91541.34;2068061;69;20637;-82
2024/01/04 02:05:11;;;;;;;3.75;1.05;;;;;;;5.52;75.62;91539.16;2067858;69;20132;-81
2024/01/04 02:07:36;;;;;;;1.77;0.90;;;;;;;5.99;73.25;91541.94;2068309;69;20149;-82
2024/01/04 02:10:02;;;;;;;1.38;0.90;;;;;;;6.10;72.57;91555.91;2068229;69;20604;-82
2024/01/04 02:12:28;;;;;;;1.52;0.90;;;;;;;6.00;73.07;91563.72;2071048;69;20485;-84
2024/01/04 02:14:54;;;;;;;1.05;0.77;;;;;;;6.16;72.99;91577.91;2069022;69;20136;-85
2024/01/04 02:17:21;;;;;;;2.20;0.80;;;;;;;5.59;76.04;91603.16;2072040;69;20176;-83
2024/01/04 02:19:50;;;;;;;0.90;0.63;;;;;;;5.89;74.95;91613.97;2068540;69;20144;-85
2024/01/04 02:22:17;;;;;;;2.63;0.82;;;;;;;6.10;73.12;91639.03;2071740;69;20240;-85
2024/01/04 02:24:46;;;;;;;0.63;0.63;;;;;;;5.98;74.47;91658.56;2069377;69;20159;-83
2024/01/04 02:27:13;;;;;;;0.70;0.70;;;;;;;6.15;73.40;91667.94;2070732;69;20147;-83
2024/01/04 02:29:39;;;;;;;1.02;0.52;;;;;;;5.91;74.26;91653.19;2071178;69;20596;-83
2024/01/04 02:32:06;;;;;;;1.38;0.80;;;;;;;5.58;75.83;91634.44;2053227;69;49625;-82
2024/01/04 02:34:32;;;;;;;1.52;0.90;;;;;;;5.23;78.01;91657.44;2060325;69;20161;-82
2024/01/04 02:36:58;;;;;;;1.88;0.90;;;;;;;5.47;77.91;91658.22;2060815;69;20497;-80
2024/01/04 02:39:25;;;;;;;1.55;0.82;;;;;;;5.88;76.03;91651.59;2061054;69;20593;-81
2024/01/04 02:41:50;;;;;;;1.02;0.65;;;;;;;5.91;74.66;91622.44;2064801;69;20151;-78
2024/01/04 02:44:17;;;;;;;1.70;0.70;;;;;;;6.07;74.40;91637.44;2058051;69;20141;-79
2024/01/04 02:46:43;;;;;;;1.48;0.90;;;;;;;6.15;74.79;91637.91;2063909;69;20160;-78
2024/01/04 02:49:09;;;;;;;1.90;0.82;;;;;;;6.20;74.53;91639.63;2063133;69;20536;-80
2024/01/04 02:51:34;;;;;;;1.67;0.70;;;;;;;6.14;75.03;91632.91;2067000;69;20620;-81
2024/01/04 02:54:00;;;;;;;1.00;0.60;;;;;;;6.13;75.81;91618.22;2063784;69;20516;-80
2024/01/04 02:56:26;;;;;;;2.38;0.57;;;;;;;5.98;76.30;91630.63;2060793;69;20145;-81
2024/01/04 02:58:51;;;;;;;1.58;1.15;;;;;;;5.29;79.16;91634.75;2064337;69;20287;-81
2024/01/04 03:01:21;;;;;;;0.93;0.70;;;;;;;5.56;77.77;91623.88;2063771;69;20168;-79
2024/01/04 03:03:51;;;;;;;0.75;0.60;;;;;;;5.72;76.12;91634.59;2064267;69;20627;-80
2024/01/04 03:06:25;;;;;;;0.95;0.70;;;;;;;5.96;74.60;91629.78;2060402;69;20271;-82
2024/01/04 03:08:51;;;;;;;2.25;1.02;;;;;;;5.97;75.49;91626.38;2064054;69;20129;-82
2024/01/04 03:11:17;;;;;;;1.17;0.70;;;;;;;6.08;74.10;91633.28;2064876;69;20153;-80
2024/01/04 03:13:43;;;;;;;0.68;0.55;;;;;;;6.14;74.65;91647.66;2060905;69;20207;-81
2024/01/04 03:16:10;;;;;;;1.80;0.60;;;;;;;6.09;74.63;91643.13;2063879;69;20244;-81
2024/01/04 03:18:35;;;;;;;1.40;0.80;;;;;;;5.40;77.72;91624.94;2064369;69;20184;-81
2024/01/04 03:21:05;;;;;;;1.48;0.70;;;;;;;5.21;77.87;91607.06;2064237;69;20152;-81
2024/01/04 03:23:31;;;;;;;1.50;0.70;;;;;;;5.06;78.51;91633.34;2058709;69;20145;-81
2024/01/04 03:25:57;;;;;;;1.23;0.73;;;;;;;5.39;77.76;91624.22;2064497;69;20169;-79
2024/01/04 03:28:22;;;;;;;0.95;0.70;;;;;;;5.54;76.54;91606.28;2064607;69;20320;-80
2024/01/04 03:30:48;;;;;;;2.08;0.70;;;;;;;5.79;75.43;91614.81;2064565;69;20589;-79
2024/01/04 03:33:13;;;;;;;1.25;0.75;;;;;;;5.48;77.12;91605.91;2064529;69;20193;-78
2024/01/04 03:35:39;;;;;;;1.13;0.60;;;;;;;5.83;75.59;91595.50;2064450;69;20153;-79
2024/01/04 03:38:05;;;;;;;0.75;0.52;;;;;;;5.84;75.33;91601.81;2061047;69;20141;-79
2024/01/04 03:40:31;;;;;;;0.98;0.70;;;;;;;5.58;75.76;91601.66;2064509;69;20197;-79
2024/01/04 03:42:56;;;;;;;2.47;0.57;;;;;;;5.59;75.57;91572.44;2064433;69;20187;-79
2024/01/04 03:45:22;;;;;;;1.33;0.60;;;;;;;5.49;74.67;91571.81;2064620;69;20149;-79
2024/01/04 03:47:48;;;;;;;0.80;0.50;;;;;;;5.46;75.02;91566.72;2064521;69;20171;-80
2024/01/04 03:50:15;;;;;;;1.52;0.70;;;;;;;5.73;73.98;91564.19;2059481;69;20161;-80
2024/01/04 03:52:41;;;;;;;0.52;0.40;;;;;;;5.79;73.88;91570.13;2061196;69;20167;-79
2024/01/04 03:55:08;;;;;;;1.45;0.52;;;;;;;5.80;73.80;91596.72;2063634;69;20137;-79
2024/01/04 03:57:35;;;;;;;0.50;0.43;;;;;;;5.84;73.56;91583.00;2060652;69;20188;-78
2024/01/04 04:00:01;;;;;;;0.70;0.50;;;;;;;5.96;72.70;91613.75;2060687;69;20141;-82
2024/01/04 04:02:36;;;;;;;0.68;0.40;;;;;;;6.01;72.89;91637.81;2064069;69;20155;-81
2024/01/04 04:05:02;;;;;;;2.53;0.40;;;;;;;6.01;72.42;91653.84;2064124;69;20157;-81
2024/01/04 04:07:29;;;;;;;0.75;0.60;;;;;;;5.82;73.26;91669.47;2065787;69;20149;-81
2024/01/04 04:09:55;;;;;;;1.30;0.80;;;;;;;5.83;73.38;91675.78;2064790;69;20619;-81
2024/01/04 04:12:21;;;;;;;1.63;0.73;;;;;;;5.69;74.22;91684.00;2064567;69;20153;-82
2024/01/04 04:14:49;;;;;;;0.75;0.70;;;;;;;5.88;73.64;91688.66;2064811;69;20665;-80
2024/01/04 04:17:18;;;;;;;0.95;0.70;;;;;;;5.61;73.95;91678.63;2065786;69;20548;-80
2024/01/04 04:19:44;;;;;;;0.77;0.60;;;;;;;5.56;74.81;91673.41;2064684;69;20153;-80
2024/01/04 04:22:09;;;;;;;2.13;0.60;;;;;;;5.77;73.92;91673.34;2066432;69;20153;-81
2024/01/04 04:24:35;;;;;;;0.50;0.50;;;;;;;5.99;72.85;91678.84;2065549;69;20147;-79
2024/01/04 04:27:01;;;;;;;1.05;0.70;;;;;;;6.08;72.82;91692.69;2066670;69;20624;-80
2024/01/04 04:29:27;;;;;;;0.98;0.70;;;;;;;6.08;72.90;91680.78;2062480;69;20187;-79
2024/01/04 04:31:55;;;;;;;1.85;0.90;;;;;;;6.19;71.84;91657.72;2065313;69;20138;-79
2024/01/04 04:34:21;;;;;;;1.30;0.82;;;;;;;6.18;72.57;91642.28;2064670;69;20137;-78
2024/01/04 04:36:49;;;;;;;0.52;0.50;;;;;;;5.97;71.63;91634.03;2066302;69;20156;-81
2024/01/04 04:39:14;;;;;;;0.60;0.40;;;;;;;5.82;71.90;91643.59;2068212;69;20144;-79
2024/01/04 04:41:40;;;;;;;1.35;0.90;;;;;;;5.92;72.59;91640.72;2067900;69;20159;-80
2024/01/04 04:44:06;;;;;;;2.45;0.85;;;;;;;5.90;73.02;91632.91;2065831;69;20518;-80
2024/01/04 04:46:33;;;;;;;1.20;0.68;;;;;;;5.86;73.77;91658.53;2064366;69;20160;-80
2024/01/04 04:48:59;;;;;;;1.40;0.73;;;;;;;5.91;72.94;91667.91;2068470;69;20532;-79
2024/01/04 04:51:25;;;;;;;0.70;0.50;;;;;;;5.96;72.60;91671.69;2068219;69;20148;-79
2024/01/04 04:53:51;;;;;;;1.15;0.60;;;;;;;6.02;71.71;91692.34;2065129;69;20229;-79
2024/01/04 04:56:18;;;;;;;1.55;1.10;;;;;;;6.09;71.85;91693.41;2062325;69;20141;-80
2024/01/04 04:58:44;;;;;;;0.93;0.77;;;;;;;5.98;72.15;91680.19;2064940;69;20184;-81
2024/01/04 05:01:10;;;;;;;1.00;0.70;;;;;;;5.96;71.68;91680.06;2065073;69;20592;-80
2024/01/04 05:03:39;;;;;;;1.02;0.90;;;;;;;5.76;72.14;91677.44;2066872;69;20156;-81
2024/01/04 05:06:10;;;;;;;2.97;1.50;;;;;;;5.63;73.76;91685.69;2067464;69;20195;-79
2024/01/04 05:08:37;;;;;;;5.18;2.60;;;;;;;5.77;73.45;91692.88;2064779;69;20149;-80
2024/01/04 05:11:07;;;;;;;3.33;1.80;;;;;;;5.99;72.70;91685.16;2065094;69;20152;-79
2024/01/04 05:13:33;;;;;;;2.42;1.30;;;;;;;5.97;72.93;91685.03;2061148;69;20223;-80
2024/01/04 05:15:59;;;;;;;2.10;1.20;;;;;;;6.04;72.58;91703.63;2067095;69;20144;-80
2024/01/04 05:18:25;;;;;;;1.98;1.00;;;;;;;6.25;71.69;91707.66;2064850;69;20145;-80
2024/01/04 05:20:51;;;;;;;1.10;0.70;;;;;;;6.22;72.17;91701.22;2064985;69;20299;-80
2024/01/04 05:23:17;;;;;;;0.98;0.65;;;;;;;6.22;72.04;91714.44;2065019;69;20165;-79
2024/01/04 05:25:44;;;;;;;0.85;0.70;;;;;;;6.25;72.17;91719.56;2057776;69;20137;-79
2024/01/04 05:28:10;;;;;;;1.33;0.60;;;;;;;6.17;73.07;91719.06;2064791;69;20265;-81
2024/01/04 05:30:35;;;;;;;4.32;0.90;;;;;;;5.98;74.08;91722.09;2060891;69;20181;-80
2024/01/04 05:33:01;;;;;;;4.65;2.25;;;;;;;6.15;72.92;91713.38;2064793;69;20217;-81
2024/01/04 05:35:28;;;;;;;1.95;1.10;;;;;;;6.31;72.06;91717.13;2064200;69;20160;-80
2024/01/04 05:37:54;;;;;;;3.10;1.10;;;;;;;6.30;72.32;91723.34;2061546;69;20145;-81
2024/01/04 05:40:20;;;;;;;4.18;0.90;;;;;;;6.29;72.26;91721.88;2058941;69;20145;-81
2024/01/04 05:42:46;;;;;;;2.97;0.73;;;;;;;6.32;72.17;91724.19;2062790;69;20180;-79
2024/01/04 05:45:12;;;;;;;0.90;0.70;;;;;;;6.22;72.79;91731.94;2060031;69;20210;-79
2024/01/04 05:47:38;;;;;;;1.17;0.70;;;;;;;6.27;72.49;91736.44;2063153;69;20176;-81
2024/01/04 05:50:06;;;;;;;1.67;0.80;;;;;;;6.22;72.74;91723.56;2062989;69;20156;-81
2024/01/04 05:52:33;;;;;;;1.30;0.90;;;;;;;6.17;72.72;91721.84;2064549;69;20249;-79
2024/01/04 05:54:59;;;;;;;2.22;0.70;;;;;;;6.23;72.49;91722.25;2062695;69;20156;-78
2024/01/04 05:57:28;;;;;;;0.88;0.70;;;;;;;6.27;72.72;91742.03;2062577;69;20168;-81
2024/01/04 05:59:54;;;;;;;1.17;0.50;;;;;;;6.23;72.56;91746.66;2062207;69;20173;-80
2024/01/04 06:02:19;;;;;;;1.50;0.95;;;;;;;5.84;73.70;91753.38;2061409;69;20244;-78
2024/01/04 06:04:46;;;;;;;3.45;1.58;;;;;;;5.95;73.84;91751.94;2057176;69;20230;-80
2024/01/04 06:07:12;;;;;;;4.82;1.40;;;;;;;6.09;73.18;91752.09;2058226;69;20136;-80
2024/01/04 06:09:38;;;;;;;4.25;1.40;;;;;;;6.11;72.87;91749.44;2063653;69;20195;-88
2024/01/04 06:12:04;;;;;;;4.45;1.52;;;;;;;6.15;72.61;91737.78;2062107;69;20680;-87
2024/01/04 06:14:30;;;;;;;3.55;1.25;;;;;;;6.04;72.75;91734.34;2060105;69;20161;-88
2024/01/04 06:16:59;;;;;;;2.28;1.25;;;;;;;6.03;72.55;91734.97;2060752;69;20145;-83
2024/01/04 06:19:26;;;;;;;1.58;0.98;;;;;;;6.07;72.67;91735.22;2063127;69;20148;-81
2024/01/04 06:21:54;;;;;;;1.48;1.00;;;;;;;6.10;72.60;91759.16;2065014;69;20157;-84
2024/01/04 06:24:19;;;;;;;4.80;0.70;;;;;;;6.09;72.39;91752.09;2064407;69;20239;-86
2024/01/04 06:26:45;;;;;;;1.88;0.80;;;;;;;6.05;72.93;91758.19;2069040;69;20160;-85
2024/01/04 06:29:12;;;;;;;3.75;0.60;;;;;;;6.12;72.90;91790.00;2059422;69;20605;-85
2024/01/04 06:31:39;;;;;;;1.48;1.05;;;;;;;5.93;73.15;91757.44;2064661;69;20250;-87
2024/01/04 06:34:05;;;;;;;2.13;0.60;;;;;;;5.93;72.54;91774.19;2064762;69;20208;-82
2024/01/04 06:36:30;;;;;;;1.65;0.70;;;;;;;6.14;71.76;91792.19;2066873;69;20172;-88
2024/01/04 06:38:56;;;;;;;1.98;0.90;;;;;;;6.14;71.90;91797.78;2065092;69;20242;-85
2024/01/04 06:41:23;;;;;;;4.22;1.60;;;;;;;5.41;74.78;91807.84;2065637;69;20199;-85
2024/01/04 06:43:49;;;;;;;1.65;1.20;;;;;;;5.85;73.61;91824.66;2065969;69;20226;-88
2024/01/04 06:46:16;;;;;;;3.90;1.70;;;;;;;5.64;74.38;91841.44;2065874;69;20165;-79
2024/01/04 06:48:42;;;;;;;5.10;1.80;;;;;;;6.00;73.29;91847.91;2059355;69;20183;-81
2024/01/04 06:51:09;;;;;;;2.10;1.30;;;;;;;6.14;72.48;91843.25;2060533;69;20616;-84
2024/01/04 06:53:35;;;;;;;3.60;2.28;;;;;;;6.01;72.54;91850.13;2066215;69;20156;-82
2024/01/04 06:56:01;;;;;;;2.65;1.60;;;;;;;5.95;73.06;91843.41;2067046;69;20775;-83
2024/01/04 06:58:26;;;;;;;3.92;1.90;;;;;;;6.14;72.38;91856.47;2068044;69;20169;-82
2024/01/04 07:00:52;;;;;;;2.13;1.50;;;;;;;6.17;72.37;91842.03;2067332;69;20152;-81
2024/01/04 07:03:19;;;;;;;2.50;1.52;;;;;;;6.15;72.41;91841.19;2059699;69;20254;-81
2024/01/04 07:05:46;;;;;;;1.92;1.30;;;;;;;6.18;72.94;91842.75;2065036;69;20235;-88
2024/01/04 07:08:11;;;;;;;1.95;1.33;;;;;;;6.14;73.08;91854.44;2063523;69;20155;-83
2024/01/04 07:10:38;;;;;;;2.15;1.50;;;;;;;6.08;73.37;91848.44;2067054;69;20145;-86
2024/01/04 07:13:04;;;;;;;1.75;1.00;;;;;;;6.09;73.31;91861.81;2066070;69;20141;-87
2024/01/04 07:15:29;;;;;;;2.65;1.30;;;;;;;6.14;73.27;91870.44;2064548;69;20766;-84
2024/01/04 07:17:57;;;;;;;2.78;1.17;;;;;;;6.19;73.01;91872.19;2063951;69;20588;-85
2024/01/04 07:20:22;;;;;;;2.97;1.13;;;;;;;6.11;72.68;91864.00;2065399;69;20588;-84
2024/01/04 07:22:52;;;;;;;2.10;1.20;;;;;;;5.90;72.91;91856.34;2068001;69;20176;-86
2024/01/04 07:25:18;;;;;;;4.40;2.58;;;;;;;6.04;72.28;91867.75;2071482;69;20176;-86
2024/01/04 07:27:44;;;;;;;3.53;2.25;;;;;;;6.23;71.72;91880.81;2070702;69;20152;-86
2024/01/04 07:30:10;;;;;;;7.60;4.05;;;;;;;5.94;72.77;91862.25;2071130;69;20162;-84
2024/01/04 07:32:36;;;;;;;5.65;2.78;;;;;;;6.08;72.14;91845.66;2066760;69;20141;-84
2024/01/04 07:35:02;;;;;;;3.83;2.20;;;;;;;6.09;72.31;91844.31;2067782;69;20143;-84
2024/01/04 07:37:28;;;;;;;2.63;1.65;;;;;;;5.96;73.72;91847.69;2068145;69;20705;-81
2024/01/04 07:39:53;;;;;;;5.78;1.60;;;;;;;6.06;73.43;91842.72;2070315;69;20152;-84
2024/01/04 07:42:19;;;;;;;2.05;1.23;;;;;;;5.43;74.72;91838.66;2068574;69;20249;-83
2024/01/04 07:44:45;;;;;;;3.50;2.22;;;;;;;5.72;74.53;91836.38;2069793;69;20156;-81
2024/01/04 07:47:10;;;;;;;6.68;3.85;;;;;;;6.09;73.25;91847.84;2066927;69;20191;-81
2024/01/04 07:49:36;;;;;;;5.22;2.63;;;;;;;6.29;72.28;91848.38;2068804;69;20221;-82
2024/01/04 07:52:02;;;;;;;2.35;1.60;;;;;;;6.45;71.48;91859.84;2065315;69;20153;-88
2024/01/04 07:54:28;;;;;;;2.55;1.08;;;;;;;6.44;71.79;91863.25;2065145;69;20160;-84
2024/01/04 07:56:55;;;;;;;1.75;1.00;;;;;;;6.43;71.47;91870.91;2067616;69;20248;-82
2024/01/04 07:59:22;;;;;;;2.03;0.93;;;;;;;6.34;72.59;91891.28;2068635;69;20172;-80
2024/01/04 08:01:49;;;;;;;1.98;0.90;;;;;;;6.41;71.75;91884.00;2065338;69;20137;-79
2024/01/04 08:04:14;;;;;;;1.55;0.75;;;;;;;6.40;71.66;91894.47;2068514;69;20259;-80
2024/01/04 08:06:40;;;;;;;1.30;1.00;;;;;;;6.30;71.92;91919.00;2068665;69;20164;-81
2024/01/04 08:09:06;;;;;;;4.20;1.90;;;;;;;6.31;71.63;91920.44;2068704;69;20220;-83
2024/01/04 08:11:32;;;;;;;3.70;1.88;;;;;;;6.18;72.68;91913.34;2062188;69;20148;-84
2024/01/04 08:13:58;;;;;;;5.13;1.90;;;;;;;6.39;71.93;91923.03;2065365;69;20355;-82
2024/01/04 08:16:25;;;;;;;7.05;3.83;;;;;;;6.24;73.05;91905.38;2065392;69;20140;-83
2024/01/04 08:18:50;;;;;;;7.10;4.75;;;;;;;6.04;73.80;91923.63;2065064;69;20219;-85
2024/01/04 08:21:16;;;;;;;7.95;4.47;;;;;;;6.16;73.00;91909.72;2061908;69;20176;-85
2024/01/04 08:23:42;;;;;;;5.63;3.28;;;;;;;6.35;72.38;91918.63;2062766;69;20535;-82
2024/01/04 08:26:08;;;;;;;3.97;2.20;;;;;;;6.48;71.69;91908.22;2068406;69;20180;-83
2024/01/04 08:28:36;;;;;;;4.93;2.35;;;;;;;6.42;71.42;91908.59;2064033;69;20156;-82
2024/01/04 08:31:03;;;;;;;3.45;2.00;;;;;;;6.63;70.57;91916.16;2068201;69;20209;-85
2024/01/04 08:33:28;;;;;;;4.13;1.80;;;;;;;6.94;70.97;91918.06;2065276;69;20156;-82
2024/01/04 08:35:54;;;;;;;5.05;2.00;;;;;;;7.09;70.34;91917.56;2068813;69;20235;-81
2024/01/04 08:38:19;;;;;;;3.80;1.88;;;;;;;7.11;71.00;91926.09;2062171;69;20147;-83
2024/01/04 08:40:45;;;;;;;1.73;1.33;;;;;;;7.12;69.19;91913.56;2067122;69;20155;-83
2024/01/04 08:43:11;;;;;;;2.22;1.60;;;;;;;7.40;70.16;91922.94;2068207;69;20142;-86
2024/01/04 08:45:38;;;;;;;1.73;1.10;;;;;;;7.43;67.97;91916.13;2066215;69;20240;-84
2024/01/04 08:48:03;;;;;;;2.47;1.67;;;;;;;7.18;69.17;91930.72;2068386;69;20133;-87
2024/01/04 08:50:29;;;;;;;3.17;2.10;;;;;;;7.45;69.03;91915.50;2068251;69;20215;-83
2024/01/04 08:52:55;;;;;;;4.05;2.28;;;;;;;7.58;68.84;91912.81;2066153;69;20161;-86
2024/01/04 08:55:22;;;;;;;3.90;2.22;;;;;;;7.86;68.38;91927.00;2066737;69;20582;-85
2024/01/04 08:57:48;;;;;;;5.90;3.47;;;;;;;7.66;66.47;91923.03;2067007;69;20294;-85
2024/01/04 09:00:14;;;;;;;7.38;3.58;;;;;;;7.75;66.22;91899.75;2065257;69;20210;-85
2024/01/04 09:02:45;;;;;;;4.75;2.95;;;;;;;7.96;66.09;91918.47;2065540;69;20145;-85
2024/01/04 09:05:11;;;;;;;4.25;2.00;;;;;;;8.03;66.02;91914.69;2061602;69;20157;-85
2024/01/04 09:07:38;;;;;;;2.75;1.65;;;;;;;8.18;65.86;91905.72;2065206;69;20244;-85
2024/01/04 09:10:05;;;;;;;3.15;1.25;;;;;;;8.02;64.33;91893.59;2065373;69;20316;-81
2024/01/04 09:12:31;;;;;;;1.80;1.20;;;;;;;8.21;63.43;91898.91;2059291;69;20561;-82
2024/01/04 09:14:56;;;;;;;1.95;1.10;;;;;;;8.48;62.44;91911.63;2061867;69;20141;-81
2024/01/04 09:17:22;;;;;;;3.85;1.20;;;;;;;8.27;61.55;91923.72;2065430;69;20153;-85
2024/01/04 09:19:49;;;;;;;3.00;1.95;;;;;;;8.29;63.50;91923.84;2065274;69;20564;-85
2024/01/04 09:22:15;;;;;;;5.07;2.75;;;;;;;8.26;63.78;91911.06;2062371;69;20181;-85
2024/01/04 09:24:41;;;;;;;2.20;1.50;;;;;;;7.89;62.45;91920.19;2061613;69;20149;-84
2024/01/04 09:27:06;;;;;;;3.30;2.00;;;;;;;7.81;62.82;91942.13;2065582;69;20711;-84
2024/01/04 09:29:32;;;;;;;5.97;2.92;;;;;;;7.98;63.22;91952.22;2065809;69;20151;-83
2024/01/04 09:31:58;;;;;;;7.20;3.80;;;;;;;8.50;62.98;91960.13;2061998;69;20654;-84
2024/01/04 09:34:24;;;;;;;4.20;2.70;;;;;;;8.42;61.55;91951.25;2065106;69;20153;-85
2024/01/04 09:36:50;;;;;;;3.25;2.13;;;;;;;8.25;61.28;91958.00;2065096;69;20161;-81
2024/01/04 09:39:19;;;;;;;3.20;1.60;;;;;;;8.48;59.65;91970.53;2067234;69;20606;-82
2024/01/04 09:41:47;;;;;;;3.30;1.70;;;;;;;8.58;59.31;91973.91;2068418;69;20175;-83
2024/01/04 09:44:14;;;;;;;18.75;9.55;;;;;;;8.84;59.87;91963.38;2068396;69;20180;-81
2024/01/04 09:46:41;;;;;;;7.03;3.40;;;;;;;8.74;59.63;91962.84;2065693;69;20161;-81
2024/01/04 09:49:09;;;;;;;4.03;2.38;;;;;;;8.84;59.71;91969.75;2064922;69;20144;-81
2024/01/04 09:51:39;;;;;;;7.03;3.17;;;;;;;8.83;60.21;91970.34;2065043;69;20244;-81
2024/01/04 09:54:08;;;;;;;3.65;2.30;;;;;;;9.03;60.98;91965.88;2061836;69;20146;-81
2024/01/04 09:56:39;;;;;;;5.22;2.70;;;;;;;9.58;58.46;91954.00;2061820;69;20219;-82
2024/01/04 09:59:05;;;;;;;4.35;3.10;;;;;;;9.91;57.56;91947.97;2067623;69;20319;-82
2024/01/04 10:01:35;;;;;;;3.20;1.90;;;;;;;9.79;58.14;91956.50;2068460;69;20505;-84
2024/01/04 10:04:12;;;;;;;2.92;1.60;;;;;;;10.42;57.85;91936.47;2068076;69;20173;-82
2024/01/04 10:06:39;;;;;;;2.42;1.80;;;;;;;10.84;57.75;91937.06;2064531;69;20234;-81
2024/01/04 10:09:17;;;;;;;3.58;1.85;;;;;;;10.64;56.81;91950.91;2067416;69;20539;-81
2024/01/04 10:12:02;;;;;;;3.72;2.10;;;;;;;10.73;56.11;91943.59;2065033;69;20585;-81
2024/01/04 10:14:28;;;;;;;2.35;1.70;;;;;;;11.17;56.81;91928.03;2065819;69;20179;-83
2024/01/04 10:16:57;;;;;;;2.40;1.75;;;;;;;11.58;54.66;91929.88;2067985;69;20148;-81
2024/01/04 10:19:24;;;;;;;3.70;1.50;;;;;;;11.31;53.23;91928.69;2067155;69;20696;-82
2024/01/04 10:21:50;;;;;;;1.52;1.02;;;;;;;10.78;52.45;91936.78;2066186;69;20178;-82
2024/01/04 10:24:23;;;;;;;2.25;1.20;;;;;;;11.18;52.79;91941.50;2066501;69;20264;-83
2024/01/04 10:26:57;;;;;;;3.25;1.98;;;;;;;10.78;53.45;91948.78;2064992;69;20342;-82
2024/01/04 10:29:27;;;;;;;3.67;2.40;;;;;;;10.47;53.11;91960.63;2065010;69;20137;-80
2024/01/04 10:32:12;;;;;;;3.78;1.98;;;;;;;10.23;54.62;91962.94;2065122;69;20237;-81
2024/01/04 10:34:38;;;;;;;3.70;2.30;;;;;;;10.16;53.97;91956.28;2067069;69;20641;-81
2024/01/04 10:37:17;;;;;;;2.38;1.42;;;;;;;10.02;53.40;91964.00;2068436;69;20136;-81
2024/01/04 10:39:58;;;;;;;2.63;1.55;;;;;;;10.27;53.56;91959.66;2068423;69;20153;-81
2024/01/04 10:42:24;;;;;;;0.95;0.60;;;;;;;9.97;53.69;91965.16;2068562;69;20180;-81
2024/01/04 10:44:53;;;;;;;1.70;1.00;;;;;;;10.02;52.31;91974.53;2065219;69;20185;-81
2024/01/04 10:47:19;;;;;;;3.05;0.80;;;;;;;9.82;53.01;91985.47;2067052;69;20654;-82
2024/01/04 10:49:48;;;;;;;3.75;0.82;;;;;;;9.80;52.91;91980.44;2066827;69;20148;-81
2024/01/04 10:52:21;;;;;;;1.73;0.80;;;;;;;10.17;52.18;91980.25;2068174;69;20145;-81
2024/01/04 10:54:51;;;;;;;2.50;0.80;;;;;;;9.84;52.01;91971.50;2065203;69;20163;-81
2024/01/04 10:57:18;;;;;;;1.25;0.60;;;;;;;9.88;51.84;91994.19;2066692;69;20149;-80
2024/01/04 10:59:46;;;;;;;0.80;0.50;;;;;;;9.39;52.12;91983.97;2068229;69;20676;-86
2024/01/04 11:02:13;;;;;;;2.55;0.50;;;;;;;9.30;51.71;91984.13;2065318;69;20197;-84
2024/01/04 11:04:43;;;;;;;1.60;0.30;;;;;;;9.40;52.74;91993.84;2065132;69;20153;-84
2024/01/04 11:07:14;;;;;;;6.93;0.60;;;;;;;8.84;54.00;92022.31;2068151;69;20229;-86
2024/01/04 11:09:46;;;;;;;0.93;0.50;;;;;;;9.03;56.50;92052.16;2063053;69;20145;-86
2024/01/04 11:12:14;;;;;;;1.75;0.47;;;;;;;8.91;56.63;92035.38;2065113;69;20159;-86
2024/01/04 11:14:40;;;;;;;0.63;0.40;;;;;;;8.62;57.57;92035.84;2065718;69;20528;-85
2024/01/04 11:17:30;;;;;;;0.93;0.50;;;;;;;8.76;58.58;92052.75;2067716;69;20153;-86
2024/01/04 11:20:35;;;;;;;2.03;0.80;;;;;;;9.04;59.32;92059.97;2064374;69;20252;-87
2024/01/04 11:23:35;;;;;;;0.90;0.65;;;;;;;8.91;58.02;92049.41;2051608;70;20142;-83
2024/01/04 11:26:23;;;;;;;1.10;0.75;;;;;;;8.76;59.68;92042.25;2048802;70;20165;-84
2024/01/04 11:28:50;;;;;;;0.80;0.55;;;;;;;8.48;59.34;92051.88;2052404;70;20177;-81
2024/01/04 11:31:16;;;;;;;1.17;0.60;;;;;;;8.95;58.38;92034.88;2052231;70;20162;-86
2024/01/04 11:33:44;;;;;;;1.30;0.60;;;;;;;8.55;59.42;92036.84;2053927;69;20494;-86
2024/01/04 11:36:18;;;;;;;0.70;0.60;;;;;;;9.41;58.37;92036.69;2051938;70;20582;-86
2024/01/04 11:38:47;;;;;;;0.90;0.63;;;;;;;9.10;57.48;92029.41;2054363;70;20224;-89
2024/01/04 11:41:12;;;;;;;0.50;0.50;;;;;;;9.10;57.90;92017.47;2054699;70;20154;-86